Time;durP1;ratioP1;P1;durP2;ratioP2;P2;SDS_P1;SDS_P2;PMS_P1;PMS_P2;Temp;Humidity;BMP_temperature;BMP_pressure;BME280_temperature;BME280_humidity;BME280_pressure;Samples;Min_cycle;Max_cycle;Signal;HPM_P1;HPM_P2
2023/01/04 00:00:17;;;;;;;11.15;3.67;;;;;;;;;;5057930;28;20024;-60
2023/01/04 00:02:42;;;;;;;9.90;2.92;;;;;;;;;;5062879;28;20019;-59
2023/01/04 00:05:08;;;;;;;13.77;3.67;;;;;;;;;;5057068;28;20116;-59
2023/01/04 00:07:33;;;;;;;13.30;3.70;;;;;;;;;;5063875;28;20585;-59
2023/01/04 00:09:58;;;;;;;17.55;3.78;;;;;;;;;;5065476;28;20046;-59
2023/01/04 00:12:24;;;;;;;19.65;3.63;;;;;;;;;;5065592;28;20032;-59
2023/01/04 00:14:50;;;;;;;8.68;3.33;;;;;;;;;;5071226;28;20089;-59
2023/01/04 00:17:15;;;;;;;7.85;3.33;;;;;;;;;;5061121;28;20748;-59
2023/01/04 00:19:40;;;;;;;9.32;3.28;;;;;;;;;;5066035;28;20058;-59
2023/01/04 00:22:06;;;;;;;13.07;3.20;;;;;;;;;;5061369;28;20042;-59
2023/01/04 00:24:31;;;;;;;10.05;3.33;;;;;;;;;;5068218;28;20027;-59
2023/01/04 00:26:56;;;;;;;15.40;3.15;;;;;;;;;;5066812;28;20064;-59
2023/01/04 00:29:21;;;;;;;16.30;3.72;;;;;;;;;;5083996;28;20020;-60
2023/01/04 00:31:47;;;;;;;8.40;3.10;;;;;;;;;;5063207;28;20021;-59
2023/01/04 00:34:13;;;;;;;10.32;3.38;;;;;;;;;;5059660;28;20036;-59
2023/01/04 00:36:38;;;;;;;6.95;3.22;;;;;;;;;;5062202;28;20038;-59
2023/01/04 00:39:07;;;;;;;13.25;3.47;;;;;;;;;;5066980;28;20478;-61
2023/01/04 00:41:42;;;;;;;10.00;3.38;;;;;;;;;;5067734;28;20017;-60
2023/01/04 00:44:07;;;;;;;11.63;3.15;;;;;;;;;;5061229;28;20024;-59
2023/01/04 00:46:33;;;;;;;11.10;3.63;;;;;;;;;;5061656;28;20496;-60
2023/01/04 00:48:58;;;;;;;9.45;3.40;;;;;;;;;;5060632;28;20032;-59
2023/01/04 00:51:24;;;;;;;16.52;3.70;;;;;;;;;;5063800;28;20023;-59
2023/01/04 00:53:49;;;;;;;9.30;3.60;;;;;;;;;;5060029;28;20028;-59
2023/01/04 00:56:14;;;;;;;14.40;3.25;;;;;;;;;;5062112;28;20091;-59
2023/01/04 00:58:39;;;;;;;14.52;3.83;;;;;;;;;;5062099;28;20774;-59
2023/01/04 01:01:05;;;;;;;16.35;3.60;;;;;;;;;;5061702;28;20677;-59
2023/01/04 01:03:30;;;;;;;12.98;3.95;;;;;;;;;;5060484;28;20541;-59
2023/01/04 01:05:59;;;;;;;12.00;3.88;;;;;;;;;;5063263;28;20135;-59
2023/01/04 01:08:25;;;;;;;10.13;3.75;;;;;;;;;;5062742;28;20555;-59
2023/01/04 01:10:50;;;;;;;10.45;3.15;;;;;;;;;;5060015;28;20020;-59
2023/01/04 01:13:15;;;;;;;8.43;2.95;;;;;;;;;;5061286;28;20119;-59
2023/01/04 01:15:41;;;;;;;8.10;3.15;;;;;;;;;;5069497;28;20081;-59
2023/01/04 01:18:06;;;;;;;8.82;3.22;;;;;;;;;;5065370;28;20028;-59
2023/01/04 01:20:31;;;;;;;7.57;3.25;;;;;;;;;;5062741;28;20464;-59
2023/01/04 01:22:56;;;;;;;12.73;3.75;;;;;;;;;;5061941;28;20032;-59
2023/01/04 01:25:22;;;;;;;10.70;3.50;;;;;;;;;;5058993;28;20020;-59
2023/01/04 01:27:47;;;;;;;10.30;3.58;;;;;;;;;;5062473;28;20071;-59
2023/01/04 01:30:12;;;;;;;7.82;3.08;;;;;;;;;;5062527;28;20027;-59
2023/01/04 01:32:37;;;;;;;12.02;3.13;;;;;;;;;;5063839;28;20021;-59
2023/01/04 01:35:03;;;;;;;9.98;3.17;;;;;;;;;;5062710;28;20028;-59
2023/01/04 01:37:28;;;;;;;13.82;3.50;;;;;;;;;;5063466;28;20013;-59
2023/01/04 01:39:53;;;;;;;13.68;3.40;;;;;;;;;;5066472;28;20028;-59
2023/01/04 01:42:19;;;;;;;10.50;3.08;;;;;;;;;;5065548;28;20481;-59
2023/01/04 01:44:44;;;;;;;9.00;3.20;;;;;;;;;;5060794;28;20490;-59
2023/01/04 01:47:13;;;;;;;8.55;2.97;;;;;;;;;;5063538;28;20348;-59
2023/01/04 01:49:38;;;;;;;6.70;2.75;;;;;;;;;;5066164;28;20779;-59
2023/01/04 01:52:05;;;;;;;18.95;3.55;;;;;;;;;;5063865;28;20025;-59
2023/01/04 01:54:34;;;;;;;14.10;3.85;;;;;;;;;;5065814;28;20024;-59
2023/01/04 01:57:00;;;;;;;10.10;3.28;;;;;;;;;;5051608;28;20134;-59
2023/01/04 01:59:25;;;;;;;5.75;2.42;;;;;;;;;;5065157;28;20639;-59
2023/01/04 02:01:51;;;;;;;14.32;3.30;;;;;;;;;;5070344;28;20570;-59
2023/01/04 02:04:16;;;;;;;11.50;2.95;;;;;;;;;;5063419;28;20489;-59
2023/01/04 02:06:42;;;;;;;11.90;3.13;;;;;;;;;;5080986;28;20047;-58
2023/01/04 02:09:07;;;;;;;11.95;3.10;;;;;;;;;;5065970;28;20173;-58
2023/01/04 02:11:33;;;;;;;16.00;3.40;;;;;;;;;;5063726;28;20578;-58
2023/01/04 02:17:01;;;;;;;7.80;2.80;;;;;;;;;;5060471;28;20051;-58
2023/01/04 02:19:44;;;;;;;9.50;3.03;;;;;;;;;;5065687;28;20095;-60
2023/01/04 02:22:19;;;;;;;7.65;3.28;;;;;;;;;;5062801;28;20830;-58
2023/01/04 02:25:02;;;;;;;15.27;3.40;;;;;;;;;;5063297;28;20024;-60
2023/01/04 02:27:46;;;;;;;9.73;3.03;;;;;;;;;;5061928;28;20454;-60
2023/01/04 02:30:21;;;;;;;10.05;3.20;;;;;;;;;;5076570;28;20023;-59
2023/01/04 02:32:52;;;;;;;11.52;3.42;;;;;;;;;;5066239;28;20052;-59
2023/01/04 02:35:17;;;;;;;12.60;3.38;;;;;;;;;;5068030;28;20024;-59
2023/01/04 02:37:49;;;;;;;9.13;3.00;;;;;;;;;;5063247;28;20032;-59
2023/01/04 02:40:15;;;;;;;10.20;2.60;;;;;;;;;;5062454;28;20048;-59
2023/01/04 02:45:40;;;;;;;12.23;3.30;;;;;;;;;;5067491;28;20039;-59
2023/01/04 02:50:52;;;;;;;8.68;3.20;;;;;;;;;;5067729;28;20039;-59
2023/01/04 02:53:19;;;;;;;13.73;3.47;;;;;;;;;;5066691;28;20480;-58
2023/01/04 02:55:49;;;;;;;9.65;3.00;;;;;;;;;;5052392;28;20023;-59
2023/01/04 02:58:31;;;;;;;10.35;2.97;;;;;;;;;;5066085;28;20048;-59
2023/01/04 03:06:39;;;;;;;5.88;2.50;;;;;;;;;;5072414;28;20145;-59
2023/01/04 03:09:10;;;;;;;6.85;2.80;;;;;;;;;;5064047;28;20032;-59
2023/01/04 03:14:50;;;;;;;9.07;2.85;;;;;;;;;;5067587;28;20055;-59
2023/01/04 03:17:16;;;;;;;7.38;2.72;;;;;;;;;;5065259;28;20038;-59
2023/01/04 03:19:50;;;;;;;14.00;3.70;;;;;;;;;;5057685;28;20021;-59
2023/01/04 03:36:24;;;;;;;13.30;3.08;;;;;;;;;;5053061;28;20110;-59
2023/01/04 03:50:12;;;;;;;8.52;2.97;;;;;;;;;;5067950;28;20036;-59
2023/01/04 03:52:37;;;;;;;6.78;2.90;;;;;;;;;;5065388;28;20119;-59
2023/01/04 03:55:03;;;;;;;6.03;2.88;;;;;;;;;;5066830;28;20545;-59
2023/01/04 03:57:28;;;;;;;9.68;3.10;;;;;;;;;;5066386;28;20469;-59
2023/01/04 04:00:05;;;;;;;6.57;2.70;;;;;;;;;;5067665;28;20048;-59
2023/01/04 04:02:30;;;;;;;8.02;2.60;;;;;;;;;;5070709;28;20031;-60
2023/01/04 04:10:23;;;;;;;11.48;2.75;;;;;;;;;;5065834;28;20451;-59
2023/01/04 04:12:48;;;;;;;9.68;3.03;;;;;;;;;;5060331;28;20036;-59
2023/01/04 04:15:14;;;;;;;5.07;2.47;;;;;;;;;;5058960;28;20073;-59
2023/01/04 04:17:39;;;;;;;14.75;2.72;;;;;;;;;;5067256;28;20035;-59
2023/01/04 04:20:05;;;;;;;10.82;3.00;;;;;;;;;;5065256;28;20017;-59
2023/01/04 04:22:30;;;;;;;10.68;3.17;;;;;;;;;;5062636;28;20569;-59
2023/01/04 04:24:55;;;;;;;9.02;2.78;;;;;;;;;;5063131;28;20025;-59
2023/01/04 04:27:20;;;;;;;8.05;2.92;;;;;;;;;;5071222;28;20100;-59
2023/01/04 04:29:45;;;;;;;6.95;2.60;;;;;;;;;;5066278;28;20067;-59
2023/01/04 04:32:11;;;;;;;8.15;3.10;;;;;;;;;;5064251;28;20020;-60
2023/01/04 04:34:36;;;;;;;10.63;2.78;;;;;;;;;;5065142;28;20055;-59
2023/01/04 04:37:04;;;;;;;10.88;2.60;;;;;;;;;;5063561;28;20053;-59
2023/01/04 04:39:29;;;;;;;9.57;2.67;;;;;;;;;;5065016;28;20376;-59
2023/01/04 04:41:54;;;;;;;10.00;2.40;;;;;;;;;;5063117;28;20026;-58
2023/01/04 04:44:20;;;;;;;9.00;3.00;;;;;;;;;;5060936;28;20474;-61
2023/01/04 04:46:45;;;;;;;9.15;2.40;;;;;;;;;;5068173;28;20046;-60
2023/01/04 04:49:13;;;;;;;7.30;2.70;;;;;;;;;;5057206;28;20055;-60
2023/01/04 04:51:41;;;;;;;8.70;2.63;;;;;;;;;;5058935;28;20108;-60
2023/01/04 04:54:07;;;;;;;9.38;2.50;;;;;;;;;;5060105;28;20131;-59
2023/01/04 04:56:32;;;;;;;7.68;2.47;;;;;;;;;;5066337;28;20095;-59
2023/01/04 04:58:58;;;;;;;7.32;2.30;;;;;;;;;;5063253;28;20028;-59
2023/01/04 05:01:23;;;;;;;8.82;2.40;;;;;;;;;;5065279;28;20099;-59
2023/01/04 05:03:48;;;;;;;5.05;2.33;;;;;;;;;;5060241;28;20593;-60
2023/01/04 05:06:14;;;;;;;6.47;2.20;;;;;;;;;;5062305;28;20044;-59
2023/01/04 05:08:39;;;;;;;7.75;2.42;;;;;;;;;;5063417;28;20029;-63
2023/01/04 05:11:07;;;;;;;7.57;2.50;;;;;;;;;;5062863;28;20098;-59
2023/01/04 05:13:32;;;;;;;10.18;2.55;;;;;;;;;;5067971;28;20036;-58
2023/01/04 05:15:58;;;;;;;8.82;2.95;;;;;;;;;;5063850;28;20020;-58
2023/01/04 05:18:23;;;;;;;7.30;2.45;;;;;;;;;;5061504;28;20516;-60
2023/01/04 05:20:48;;;;;;;8.65;2.70;;;;;;;;;;5063359;28;20311;-60
2023/01/04 05:23:14;;;;;;;5.57;2.30;;;;;;;;;;5069140;28;20020;-59
2023/01/04 05:25:39;;;;;;;4.57;2.05;;;;;;;;;;5061602;28;20067;-58
2023/01/04 05:28:05;;;;;;;9.07;2.50;;;;;;;;;;5065355;28;20024;-58
2023/01/04 05:33:14;;;;;;;6.38;2.78;;;;;;;;;;5064185;28;20040;-59
2023/01/04 05:35:39;;;;;;;14.35;3.83;;;;;;;;;;5054105;28;20016;-60
2023/01/04 05:38:04;;;;;;;7.80;2.33;;;;;;;;;;5061574;28;20475;-60
2023/01/04 05:40:30;;;;;;;9.95;2.53;;;;;;;;;;5067320;28;20020;-58
2023/01/04 05:42:55;;;;;;;7.45;2.40;;;;;;;;;;5059863;28;20467;-60
2023/01/04 05:45:20;;;;;;;5.88;2.13;;;;;;;;;;5061169;28;20035;-59
2023/01/04 05:47:51;;;;;;;5.80;2.42;;;;;;;;;;5059937;28;20115;-59
2023/01/04 05:50:17;;;;;;;7.88;2.45;;;;;;;;;;5064915;28;21337;-60
2023/01/04 05:52:43;;;;;;;6.47;2.28;;;;;;;;;;5060528;28;20439;-60
2023/01/04 05:55:08;;;;;;;8.27;2.00;;;;;;;;;;5059932;28;20627;-60
2023/01/04 05:57:33;;;;;;;5.28;2.55;;;;;;;;;;5063002;28;20123;-61
2023/01/04 05:59:58;;;;;;;11.32;2.47;;;;;;;;;;5053182;28;20025;-61
2023/01/04 06:02:26;;;;;;;5.90;2.45;;;;;;;;;;5070267;28;20031;-61
2023/01/04 06:04:51;;;;;;;6.28;2.08;;;;;;;;;;5061979;28;20090;-60
2023/01/04 06:07:16;;;;;;;4.03;1.92;;;;;;;;;;5058442;28;20053;-58
2023/01/04 06:09:42;;;;;;;12.95;2.20;;;;;;;;;;5061468;28;20017;-59
2023/01/04 06:12:07;;;;;;;9.10;2.40;;;;;;;;;;5059064;28;20028;-59
2023/01/04 06:14:32;;;;;;;5.50;1.80;;;;;;;;;;5061070;28;20121;-59
2023/01/04 06:16:58;;;;;;;7.97;2.88;;;;;;;;;;5061529;28;20024;-60
2023/01/04 06:19:23;;;;;;;7.47;2.20;;;;;;;;;;5061005;28;20017;-59
2023/01/04 06:21:48;;;;;;;7.05;2.15;;;;;;;;;;5064455;28;20024;-60
2023/01/04 06:24:14;;;;;;;7.22;2.50;;;;;;;;;;5061767;28;20444;-59
2023/01/04 06:26:39;;;;;;;3.78;1.90;;;;;;;;;;5061956;28;20024;-61
2023/01/04 06:29:04;;;;;;;6.50;2.08;;;;;;;;;;5075708;28;20108;-59
2023/01/04 06:31:29;;;;;;;6.05;2.05;;;;;;;;;;5063766;28;20043;-59
2023/01/04 06:33:55;;;;;;;6.93;2.00;;;;;;;;;;5062516;28;20039;-59
2023/01/04 06:36:20;;;;;;;5.68;1.77;;;;;;;;;;5065252;28;20047;-59
2023/01/04 06:38:46;;;;;;;5.68;2.40;;;;;;;;;;5066294;28;20068;-59
2023/01/04 06:41:11;;;;;;;2.80;1.98;;;;;;;;;;5068006;28;20618;-59
2023/01/04 06:43:36;;;;;;;7.93;1.90;;;;;;;;;;5067687;28;20054;-60
2023/01/04 06:46:02;;;;;;;2.78;1.73;;;;;;;;;;5070342;28;20035;-59
2023/01/04 06:48:28;;;;;;;5.00;2.03;;;;;;;;;;5062702;28;20032;-59
2023/01/04 06:50:53;;;;;;;3.72;1.90;;;;;;;;;;5078623;28;20035;-59
2023/01/04 06:53:18;;;;;;;6.20;1.90;;;;;;;;;;5065585;28;20434;-59
2023/01/04 06:55:44;;;;;;;6.53;2.08;;;;;;;;;;5062909;28;20016;-59
2023/01/04 06:58:09;;;;;;;6.47;2.13;;;;;;;;;;5060955;28;20565;-60
2023/01/04 07:00:34;;;;;;;6.00;2.20;;;;;;;;;;5064223;28;20047;-59
2023/01/04 07:02:59;;;;;;;5.18;1.95;;;;;;;;;;5061360;28;20460;-59
2023/01/04 07:05:25;;;;;;;5.97;2.17;;;;;;;;;;5063653;28;20436;-60
2023/01/04 07:07:50;;;;;;;12.05;2.60;;;;;;;;;;5064047;28;20044;-60
2023/01/04 07:10:15;;;;;;;4.85;1.90;;;;;;;;;;5060829;28;20103;-60
2023/01/04 07:12:40;;;;;;;3.50;2.00;;;;;;;;;;5060821;28;20028;-60
2023/01/04 07:15:06;;;;;;;3.67;1.90;;;;;;;;;;5059494;28;20121;-60
2023/01/04 07:17:31;;;;;;;4.15;1.80;;;;;;;;;;5075157;28;20455;-60
2023/01/04 07:19:56;;;;;;;4.88;1.77;;;;;;;;;;5059660;28;20028;-60
2023/01/04 07:22:22;;;;;;;6.45;1.98;;;;;;;;;;5064021;28;20373;-60
2023/01/04 07:24:47;;;;;;;5.78;1.75;;;;;;;;;;5062059;28;20047;-61
2023/01/04 07:27:13;;;;;;;3.63;2.00;;;;;;;;;;5062908;28;20046;-59
2023/01/04 07:29:38;;;;;;;5.90;2.00;;;;;;;;;;5059547;28;20426;-61
2023/01/04 07:32:03;;;;;;;3.55;1.58;;;;;;;;;;5063226;28;20107;-59
2023/01/04 07:34:28;;;;;;;3.15;1.70;;;;;;;;;;5061668;28;20059;-61
2023/01/04 07:36:54;;;;;;;4.45;1.90;;;;;;;;;;5062712;28;20447;-59
2023/01/04 07:39:19;;;;;;;4.40;1.60;;;;;;;;;;5060818;28;20032;-59
2023/01/04 07:41:44;;;;;;;5.53;1.95;;;;;;;;;;5061736;28;20016;-59
2023/01/04 07:44:10;;;;;;;2.30;1.63;;;;;;;;;;5059332;28;20029;-59
2023/01/04 07:46:35;;;;;;;3.55;1.85;;;;;;;;;;5062036;28;20035;-59
2023/01/04 07:49:00;;;;;;;4.78;2.03;;;;;;;;;;5065864;28;20062;-60
2023/01/04 07:51:26;;;;;;;2.47;1.77;;;;;;;;;;5062682;28;20023;-60
2023/01/04 07:53:51;;;;;;;4.03;1.40;;;;;;;;;;5077741;28;20036;-59
2023/01/04 07:56:16;;;;;;;3.60;1.70;;;;;;;;;;5063523;28;20024;-59
2023/01/04 07:58:42;;;;;;;2.28;1.58;;;;;;;;;;5067161;28;20474;-59
2023/01/04 08:01:07;;;;;;;3.75;1.80;;;;;;;;;;5059407;28;20024;-59
2023/01/04 08:03:32;;;;;;;4.07;1.85;;;;;;;;;;5065383;28;20092;-59
2023/01/04 08:06:01;;;;;;;2.90;1.80;;;;;;;;;;5065917;28;20501;-59
2023/01/04 08:08:26;;;;;;;3.97;1.60;;;;;;;;;;5060921;28;20020;-59
2023/01/04 08:10:51;;;;;;;4.10;1.75;;;;;;;;;;5059803;28;20387;-59
2023/01/04 08:13:16;;;;;;;2.17;1.40;;;;;;;;;;5058326;28;20036;-59
2023/01/04 08:15:42;;;;;;;2.85;1.55;;;;;;;;;;5060604;28;20017;-60
2023/01/04 08:18:07;;;;;;;1.45;1.35;;;;;;;;;;5061251;28;20028;-59
2023/01/04 08:20:32;;;;;;;1.98;1.50;;;;;;;;;;5058280;28;20454;-60
2023/01/04 08:22:58;;;;;;;1.58;1.10;;;;;;;;;;5060627;28;20039;-59
2023/01/04 08:25:23;;;;;;;2.47;1.60;;;;;;;;;;5058086;28;20058;-60
2023/01/04 08:27:48;;;;;;;2.67;1.60;;;;;;;;;;5060319;28;20023;-60
2023/01/04 08:30:14;;;;;;;5.43;2.35;;;;;;;;;;5055382;28;20020;-59
2023/01/04 08:32:39;;;;;;;3.20;1.58;;;;;;;;;;5058811;28;20032;-60
2023/01/04 08:35:05;;;;;;;5.25;2.38;;;;;;;;;;5058611;28;20115;-59
2023/01/04 08:37:30;;;;;;;1.90;1.17;;;;;;;;;;5061561;28;20017;-59
2023/01/04 08:39:56;;;;;;;3.75;1.90;;;;;;;;;;5057890;28;20032;-61
2023/01/04 08:42:21;;;;;;;5.30;2.13;;;;;;;;;;5062295;28;20814;-60
2023/01/04 08:44:47;;;;;;;4.47;1.83;;;;;;;;;;5055185;28;20813;-60
2023/01/04 08:47:12;;;;;;;4.68;1.90;;;;;;;;;;5040140;28;20620;-61
2023/01/04 08:49:37;;;;;;;3.33;1.88;;;;;;;;;;5061087;28;20021;-59
2023/01/04 08:52:03;;;;;;;3.03;1.60;;;;;;;;;;5061421;28;20162;-59
2023/01/04 08:54:28;;;;;;;3.65;1.55;;;;;;;;;;5058866;28;20032;-59
2023/01/04 08:56:53;;;;;;;3.67;1.70;;;;;;;;;;5058807;28;20020;-61
2023/01/04 08:59:18;;;;;;;5.68;1.77;;;;;;;;;;5060276;28;20252;-60
2023/01/04 09:01:44;;;;;;;3.00;1.48;;;;;;;;;;5060732;28;20104;-60
2023/01/04 09:04:10;;;;;;;2.55;1.30;;;;;;;;;;5061667;28;20036;-60
2023/01/04 09:06:35;;;;;;;1.73;1.50;;;;;;;;;;5060655;28;20124;-59
2023/01/04 09:09:00;;;;;;;3.47;1.35;;;;;;;;;;5061374;28;20379;-60
2023/01/04 09:11:26;;;;;;;2.70;1.50;;;;;;;;;;5061546;28;20597;-60
2023/01/04 09:14:00;;;;;;;2.45;1.42;;;;;;;;;;5062472;28;20039;-61
2023/01/04 09:16:26;;;;;;;1.75;1.40;;;;;;;;;;5059913;28;20112;-60
2023/01/04 09:18:51;;;;;;;1.77;1.25;;;;;;;;;;5061253;28;20099;-60
2023/01/04 09:21:17;;;;;;;3.95;1.40;;;;;;;;;;5061879;28;20024;-61
2023/01/04 09:23:42;;;;;;;1.60;1.30;;;;;;;;;;5061255;28;20016;-59
2023/01/04 09:26:08;;;;;;;3.60;1.50;;;;;;;;;;5060932;28;21705;-59
2023/01/04 09:28:34;;;;;;;3.45;1.35;;;;;;;;;;5061647;28;20055;-59
2023/01/04 09:31:03;;;;;;;4.22;1.25;;;;;;;;;;5061130;28;20070;-59
2023/01/04 09:33:28;;;;;;;1.93;1.20;;;;;;;;;;5057546;28;20376;-60
2023/01/04 09:35:54;;;;;;;3.88;1.42;;;;;;;;;;5060742;28;20639;-59
2023/01/04 09:38:19;;;;;;;1.42;1.20;;;;;;;;;;5061442;28;20533;-60
2023/01/04 09:40:50;;;;;;;2.25;1.40;;;;;;;;;;5061135;28;20028;-59
2023/01/04 09:43:17;;;;;;;3.28;1.52;;;;;;;;;;5055255;28;20025;-59
2023/01/04 09:45:42;;;;;;;2.08;1.35;;;;;;;;;;5059178;28;20028;-60
2023/01/04 09:48:12;;;;;;;2.42;1.30;;;;;;;;;;5061022;28;20020;-59
2023/01/04 09:50:51;;;;;;;2.58;1.40;;;;;;;;;;5057528;28;20021;-59
2023/01/04 09:53:24;;;;;;;1.98;1.17;;;;;;;;;;5061064;28;20537;-60
2023/01/04 09:55:49;;;;;;;3.00;1.38;;;;;;;;;;5057029;28;20470;-59
2023/01/04 09:58:27;;;;;;;2.10;1.40;;;;;;;;;;5061123;28;20138;-60
2023/01/04 10:01:15;;;;;;;1.67;1.23;;;;;;;;;;5065243;28;20024;-59
2023/01/04 10:03:44;;;;;;;1.38;1.10;;;;;;;;;;5060237;28;20039;-59
2023/01/04 10:06:09;;;;;;;1.52;1.25;;;;;;;;;;5059254;28;20094;-60
2023/01/04 10:08:35;;;;;;;3.58;1.40;;;;;;;;;;5045388;28;20024;-60
2023/01/04 10:11:09;;;;;;;3.42;1.38;;;;;;;;;;5064013;28;20024;-60
2023/01/04 10:13:34;;;;;;;2.20;1.30;;;;;;;;;;5063486;28;20389;-60
2023/01/04 10:16:08;;;;;;;1.67;1.40;;;;;;;;;;5064005;28;20784;-60
2023/01/04 10:18:39;;;;;;;1.05;1.05;;;;;;;;;;5064959;28;20016;-60
2023/01/04 10:21:23;;;;;;;1.48;1.00;;;;;;;;;;5062127;28;20119;-59
2023/01/04 10:23:50;;;;;;;2.20;1.10;;;;;;;;;;5064710;28;20154;-60
2023/01/04 10:26:17;;;;;;;2.95;1.20;;;;;;;;;;5061236;28;20712;-60
2023/01/04 10:28:51;;;;;;;2.33;1.38;;;;;;;;;;5062986;28;20569;-59
2023/01/04 10:31:35;;;;;;;1.52;1.20;;;;;;;;;;5064509;28;20013;-60
2023/01/04 10:34:05;;;;;;;1.30;1.20;;;;;;;;;;5061902;28;20028;-60
2023/01/04 10:36:31;;;;;;;1.95;1.27;;;;;;;;;;5065080;28;20028;-60
2023/01/04 10:39:11;;;;;;;2.55;1.48;;;;;;;;;;5062968;28;20505;-61
2023/01/04 10:41:37;;;;;;;;;;;;;;;;;;5040500;28;20027;-60
2023/01/04 10:44:14;;;;;;;3.58;1.23;;;;;;;;;;5063676;28;19999;-59
2023/01/04 10:46:43;;;;;;;1.45;1.17;;;;;;;;;;5064176;28;20031;-59
2023/01/04 10:49:17;;;;;;;2.30;1.35;;;;;;;;;;5061727;28;20013;-61
2023/01/04 10:51:44;;;;;;;2.90;1.30;;;;;;;;;;5061086;28;20384;-60
2023/01/04 10:54:09;;;;;;;2.50;1.10;;;;;;;;;;5059481;28;20059;-60
2023/01/04 10:56:38;;;;;;;3.88;1.20;;;;;;;;;;5060158;28;20279;-60
2023/01/04 10:59:12;;;;;;;1.60;1.10;;;;;;;;;;5078775;28;20025;-60
2023/01/04 11:01:57;;;;;;;2.20;1.38;;;;;;;;;;5059391;28;20020;-60
2023/01/04 11:04:28;;;;;;;4.20;1.40;;;;;;;;;;5064621;28;20466;-60
2023/01/04 11:07:12;;;;;;;2.72;1.23;;;;;;;;;;5063086;28;20049;-61
2023/01/04 11:09:43;;;;;;;2.10;1.50;;;;;;;;;;5061532;28;20115;-60
2023/01/04 11:12:10;;;;;;;1.83;1.33;;;;;;;;;;5059413;28;20099;-59
2023/01/04 11:14:35;;;;;;;1.38;1.25;;;;;;;;;;5064186;28;20514;-60
2023/01/04 11:17:01;;;;;;;1.83;1.30;;;;;;;;;;5061312;28;20036;-58
2023/01/04 11:19:26;;;;;;;3.95;1.58;;;;;;;;;;5062886;28;20028;-58
2023/01/04 11:21:55;;;;;;;3.00;1.75;;;;;;;;;;5063721;28;20016;-58
2023/01/04 11:24:21;;;;;;;7.55;3.20;;;;;;;;;;5063164;28;20542;-59
2023/01/04 11:26:46;;;;;;;5.03;2.20;;;;;;;;;;5062972;28;20107;-58
2023/01/04 11:29:15;;;;;;;12.05;5.47;;;;;;;;;;5056888;28;20587;-59
2023/01/04 11:31:45;;;;;;;9.23;3.22;;;;;;;;;;5059912;28;20460;-59
2023/01/04 11:34:10;;;;;;;;;;;;;;;;;;5064068;28;20134;-59
2023/01/04 11:36:39;;;;;;;10.95;3.25;;;;;;;;;;5064438;28;20519;-59
2023/01/04 11:39:17;;;;;;;7.72;3.55;;;;;;;;;;5061062;28;20265;-60
2023/01/04 11:41:56;;;;;;;4.63;2.13;;;;;;;;;;5063374;28;20078;-60
2023/01/04 11:44:21;;;;;;;7.63;4.32;;;;;;;;;;5062240;28;20021;-61
2023/01/04 11:46:47;;;;;;;10.98;4.20;;;;;;;;;;5061614;28;20020;-60
2023/01/04 11:49:19;;;;;;;9.73;4.35;;;;;;;;;;5062475;28;20077;-60
2023/01/04 11:51:44;;;;;;;5.68;3.17;;;;;;;;;;5063556;28;20146;-61
2023/01/04 11:54:13;;;;;;;12.02;3.33;;;;;;;;;;5059603;28;20553;-59
2023/01/04 11:56:40;;;;;;;8.55;3.03;;;;;;;;;;5062389;28;20028;-59
2023/01/04 11:59:15;;;;;;;2.95;1.75;;;;;;;;;;5055723;28;20033;-59
2023/01/04 12:01:41;;;;;;;5.57;2.60;;;;;;;;;;5062625;28;20028;-59
2023/01/04 12:04:14;;;;;;;6.22;2.42;;;;;;;;;;5064187;28;20785;-62
2023/01/04 12:06:41;;;;;;;4.57;1.70;;;;;;;;;;5064240;28;20131;-60
2023/01/04 12:09:14;;;;;;;5.80;2.00;;;;;;;;;;5062073;28;20502;-59
2023/01/04 12:11:41;;;;;;;4.80;1.92;;;;;;;;;;5057672;28;20024;-59
2023/01/04 12:14:26;;;;;;;4.78;2.00;;;;;;;;;;5060240;28;20059;-60
2023/01/04 12:16:52;;;;;;;6.32;1.58;;;;;;;;;;5062713;28;20459;-60
2023/01/04 12:19:17;;;;;;;2.58;1.60;;;;;;;;;;5061544;28;20110;-59
2023/01/04 12:21:43;;;;;;;1.90;1.40;;;;;;;;;;5059456;28;20103;-59
2023/01/04 12:24:09;;;;;;;3.33;1.50;;;;;;;;;;5062778;28;20627;-59
2023/01/04 12:26:41;;;;;;;3.38;2.20;;;;;;;;;;5066025;28;20247;-60
2023/01/04 12:29:22;;;;;;;3.53;1.75;;;;;;;;;;5063434;28;20449;-60
2023/01/04 12:31:47;;;;;;;3.83;2.45;;;;;;;;;;5062476;28;20054;-59
2023/01/04 12:34:22;;;;;;;3.05;1.38;;;;;;;;;;5063781;28;20068;-59
2023/01/04 12:36:47;;;;;;;1.67;1.40;;;;;;;;;;5067078;28;20033;-59
2023/01/04 12:39:15;;;;;;;2.60;2.05;;;;;;;;;;5057577;28;20028;-59
2023/01/04 12:41:42;;;;;;;2.88;1.25;;;;;;;;;;5077357;28;20028;-59
2023/01/04 12:44:26;;;;;;;2.58;1.65;;;;;;;;;;5061887;28;20021;-59
2023/01/04 12:49:38;;;;;;;2.00;1.40;;;;;;;;;;5061119;28;20544;-59
2023/01/04 12:52:09;;;;;;;3.28;1.83;;;;;;;;;;5059086;28;20021;-59
2023/01/04 12:54:53;;;;;;;1.98;1.40;;;;;;;;;;5056858;28;20055;-59
2023/01/04 12:57:34;;;;;;;3.92;1.50;;;;;;;;;;5060321;28;20099;-59
2023/01/04 13:00:00;;;;;;;2.53;1.70;;;;;;;;;;5060849;28;20032;-59
2023/01/04 13:02:29;;;;;;;4.15;1.95;;;;;;;;;;5061161;28;20547;-59
2023/01/04 13:04:58;;;;;;;3.25;1.40;;;;;;;;;;5063220;28;20021;-60
2023/01/04 13:07:28;;;;;;;2.92;1.38;;;;;;;;;;5079181;28;20044;-59
2023/01/04 13:09:58;;;;;;;4.35;2.10;;;;;;;;;;5059508;28;20024;-59
2023/01/04 13:12:38;;;;;;;4.78;1.17;;;;;;;;;;5064250;28;20239;-59
2023/01/04 13:15:09;;;;;;;1.52;1.35;;;;;;;;;;5070115;28;20047;-59
2023/01/04 13:17:37;;;;;;;3.60;1.25;;;;;;;;;;5058194;28;20027;-59
2023/01/04 13:20:12;;;;;;;1.20;1.10;;;;;;;;;;5062115;28;20039;-59
2023/01/04 13:22:37;;;;;;;2.67;1.58;;;;;;;;;;5058137;28;20457;-59
2023/01/04 13:25:04;;;;;;;2.17;1.42;;;;;;;;;;5055378;28;20116;-59
2023/01/04 13:27:30;;;;;;;3.72;1.50;;;;;;;;;;5060894;28;20037;-59
2023/01/04 13:29:55;;;;;;;1.85;1.52;;;;;;;;;;5063891;28;20067;-59
2023/01/04 13:32:24;;;;;;;1.55;1.20;;;;;;;;;;5059562;28;20062;-59
2023/01/04 13:34:58;;;;;;;1.73;1.30;;;;;;;;;;5060449;28;20491;-59
2023/01/04 13:37:37;;;;;;;3.00;1.00;;;;;;;;;;5060599;28;20159;-59
2023/01/04 13:40:14;;;;;;;1.80;1.08;;;;;;;;;;5054642;28;20067;-59
2023/01/04 13:42:40;;;;;;;1.00;0.95;;;;;;;;;;5059512;28;20021;-60
2023/01/04 13:45:05;;;;;;;2.63;1.10;;;;;;;;;;5051985;28;20029;-59
2023/01/04 13:47:35;;;;;;;1.88;1.38;;;;;;;;;;5058871;28;20028;-59
2023/01/04 13:50:00;;;;;;;1.70;1.25;;;;;;;;;;5059223;28;20171;-59
2023/01/04 13:52:25;;;;;;;3.20;1.58;;;;;;;;;;5052531;28;20111;-59
2023/01/04 13:54:51;;;;;;;2.35;1.08;;;;;;;;;;5065873;28;20028;-59
2023/01/04 13:57:19;;;;;;;3.60;2.40;;;;;;;;;;5078406;28;20099;-59
2023/01/04 13:59:47;;;;;;;1.45;1.10;;;;;;;;;;5054736;28;20491;-61
2023/01/04 14:02:16;;;;;;;2.63;1.90;;;;;;;;;;5055151;28;20028;-60
2023/01/04 14:04:42;;;;;;;2.38;1.13;;;;;;;;;;5060404;28;20024;-60
2023/01/04 14:07:07;;;;;;;1.85;1.48;;;;;;;;;;5055782;28;20052;-60
2023/01/04 14:09:41;;;;;;;3.08;2.15;;;;;;;;;;5076043;28;20012;-60
2023/01/04 14:12:07;;;;;;;2.78;1.65;;;;;;;;;;5058445;28;20106;-60
2023/01/04 14:14:32;;;;;;;6.50;5.15;;;;;;;;;;5061297;28;20036;-60
2023/01/04 14:17:16;;;;;;;1.65;1.55;;;;;;;;;;5060777;28;20090;-59
2023/01/04 14:19:43;;;;;;;5.22;3.63;;;;;;;;;;5051483;28;20125;-59
2023/01/04 14:22:20;;;;;;;5.60;4.22;;;;;;;;;;5053977;28;20043;-60
2023/01/04 14:24:45;;;;;;;2.08;1.52;;;;;;;;;;5060968;28;20024;-60
2023/01/04 14:27:30;;;;;;;1.45;1.20;;;;;;;;;;5060236;28;20422;-59
2023/01/04 14:29:55;;;;;;;5.07;3.03;;;;;;;;;;5058329;28;20233;-59
2023/01/04 14:32:20;;;;;;;5.45;2.92;;;;;;;;;;5058967;28;20035;-59
2023/01/04 14:34:45;;;;;;;1.30;1.20;;;;;;;;;;5060116;28;20036;-58
2023/01/04 14:37:11;;;;;;;2.60;1.70;;;;;;;;;;5059125;28;20021;-59
2023/01/04 14:39:36;;;;;;;2.80;1.15;;;;;;;;;;5063491;28;20292;-59
2023/01/04 14:42:02;;;;;;;2.80;1.80;;;;;;;;;;5062633;28;20490;-59
2023/01/04 14:44:29;;;;;;;1.92;1.48;;;;;;;;;;5063648;28;20462;-59
2023/01/04 14:46:55;;;;;;;3.33;1.88;;;;;;;;;;5063324;28;20132;-59
2023/01/04 14:49:21;;;;;;;3.13;1.88;;;;;;;;;;5063757;28;20032;-59
2023/01/04 14:51:47;;;;;;;3.67;2.40;;;;;;;;;;5061357;28;20024;-59
2023/01/04 14:54:12;;;;;;;1.38;1.25;;;;;;;;;;5063470;28;20032;-59
2023/01/04 14:56:38;;;;;;;6.30;3.90;;;;;;;;;;5063161;28;20081;-59
2023/01/04 14:59:03;;;;;;;3.30;1.20;;;;;;;;;;5062186;28;20028;-59
2023/01/04 15:01:29;;;;;;;2.90;2.28;;;;;;;;;;5061821;28;20099;-59
2023/01/04 15:03:54;;;;;;;1.85;1.40;;;;;;;;;;5061355;28;20024;-59
2023/01/04 15:06:19;;;;;;;2.80;1.73;;;;;;;;;;5062719;28;20049;-59
2023/01/04 15:08:44;;;;;;;4.88;2.22;;;;;;;;;;5061915;28;20020;-59
2023/01/04 15:11:13;;;;;;;3.47;1.48;;;;;;;;;;5060150;28;20554;-59
2023/01/04 15:13:38;;;;;;;1.88;1.30;;;;;;;;;;5063362;28;20412;-59
2023/01/04 15:16:04;;;;;;;1.60;1.50;;;;;;;;;;5062769;28;20021;-59
2023/01/04 15:18:29;;;;;;;2.90;1.40;;;;;;;;;;5063479;28;20024;-59
2023/01/04 15:20:54;;;;;;;2.38;1.30;;;;;;;;;;5063355;28;20023;-59
2023/01/04 15:23:20;;;;;;;1.77;1.42;;;;;;;;;;5062676;28;20040;-59
2023/01/04 15:25:45;;;;;;;4.18;1.67;;;;;;;;;;5077603;28;20013;-59
2023/01/04 15:28:10;;;;;;;2.55;1.70;;;;;;;;;;5063541;28;20012;-59
2023/01/04 15:30:39;;;;;;;1.85;1.33;;;;;;;;;;5062528;28;20027;-59
2023/01/04 15:33:04;;;;;;;2.85;1.55;;;;;;;;;;5062696;28;20055;-58
2023/01/04 15:35:29;;;;;;;1.20;1.10;;;;;;;;;;5062008;28;20032;-58